Aviation Digital Data Service (ADDS)

Output produced by TAFs form (2017 UTC 30 September 2016)
found at http://www.aviationweather.gov/adds/tafs/
 
KALB 301731Z 3018/0118 05009KT P6SM SCT040 OVC140 
     FM302000 05009KT P6SM VCSH BKN040 OVC100 
     FM010200 04005KT 3SM -RA BR SCT025 OVC040 
     FM010400 04005KT 3SM -RA BR SCT015 OVC025 
     FM011400 35009KT 3SM -RA BR BKN015 OVC025